Las Vegas Municipal Airport Las Vegas US
ICAO: KLVS
IATA: LVS
Category: Medium
Scheduled Services: No

Elevation: 6877 ft
TransAlt. 18000 ft.

Airport Communications:
ASOS:118.525
ALBUQUERQUE CNTR:132.8
ALBUQUERQUE RDO:122.6
CTAF/UNICOM:122.8

KLVS Zoom In..

If you have problems with the map follow the link
https://www.worldairports.se/pages/airport.php?
ICAO=KLVS

Runways:

(A) RW 02 length 5006 ft width 75 ft
---- / hdg 22

(B) RW 14 length 8199 ft width 75 ft
---- / hdg 139

(C) RW 20 length 5006 ft width 75 ft
---- / hdg 202

(D) RW 32 length 8199 ft width 75 ft
---- / hdg 319

Location; KLVS
Day. 21 / Time. 20.23 Zulu
* Altimeter: 30.03
* Temperature: 01° c. 33.8°f.
* Wind from: 180° Speed 12 kn.
Dewpoint: 00° c.
Visibility: 1 m.
Clouds: Broken 200 ft.
Clouds: Broken 1500 ft.
Clouds: Overcast 2800 ft.
Conditions: Light Snow.Conditions: Mist.

KLVS 212023Z AUTO 18012KT 1 3/4SM -SN BR BKN002 BKN015 OVC028 01/00 A3003 RMK AO2 RAE08SNB08 P0001 T00060000


Wind From 180°
Speed 12 kn.

 
 
jpsmedia worldairports.se 2020   terms of use